Time;durP1;ratioP1;P1;durP2;ratioP2;P2;SDS_P1;SDS_P2;PMS_P1;PMS_P2;Temp;Humidity;BMP_temperature;BMP_pressure;BME280_temperature;BME280_humidity;BME280_pressure;Samples;Min_cycle;Max_cycle;Signal;HPM_P1;HPM_P2
2022/09/05 00:01:34;;;;;;;7.55;4.13;;;18.60;99.90;;;;;;5112965;28;20492;-61
2022/09/05 00:04:15;;;;;;;7.75;4.40;;;18.60;99.90;;;;;;5112846;28;20476;-61
2022/09/05 00:06:50;;;;;;;6.63;4.25;;;18.60;99.90;;;;;;5112682;28;20497;-61
2022/09/05 00:09:36;;;;;;;7.70;4.35;;;18.60;99.90;;;;;;5111571;28;20495;-60
2022/09/05 00:12:04;;;;;;;6.03;4.38;;;18.50;99.90;;;;;;5112051;28;20043;-61
2022/09/05 00:14:30;;;;;;;7.57;4.03;;;18.50;99.90;;;;;;5113625;28;20073;-61
2022/09/05 00:17:28;;;;;;;7.63;4.20;;;18.50;99.90;;;;;;5112154;28;20127;-61
2022/09/05 00:20:15;;;;;;;7.07;3.55;;;18.50;99.90;;;;;;5112562;28;20086;-61
2022/09/05 00:22:54;;;;;;;7.25;3.85;;;18.50;99.90;;;;;;5113278;28;20043;-61
2022/09/05 00:25:57;;;;;;;6.65;3.97;;;18.40;99.90;;;;;;5110649;28;20495;-61
2022/09/05 00:28:48;;;;;;;7.95;4.20;;;18.40;99.90;;;;;;5112664;28;20089;-61
2022/09/05 00:31:24;;;;;;;5.95;4.10;;;18.40;99.90;;;;;;5106559;28;20063;-61
2022/09/05 00:34:37;;;;;;;8.40;3.85;;;18.40;99.90;;;;;;5113106;28;20043;-61
2022/09/05 00:37:03;;;;;;;8.05;4.47;;;18.30;99.90;;;;;;5029724;28;20044;-61
2022/09/05 00:39:35;;;;;;;6.28;4.15;;;18.30;99.90;;;;;;5029592;28;20041;-61
2022/09/05 00:42:10;;;;;;;7.55;4.18;;;18.30;99.90;;;;;;5068696;28;20058;-61
2022/09/05 00:44:50;;;;;;;8.75;4.55;;;18.30;99.90;;;;;;5113310;28;20067;-61
2022/09/05 00:47:44;;;;;;;6.75;4.15;;;18.20;99.90;;;;;;5110748;28;20067;-61
2022/09/05 00:50:23;;;;;;;7.45;4.43;;;18.20;99.90;;;;;;5112389;28;20036;-61
2022/09/05 00:53:17;;;;;;;7.63;4.75;;;18.20;99.90;;;;;;5110128;28;20070;-61
2022/09/05 00:56:13;;;;;;;6.38;4.05;;;18.20;99.90;;;;;;5112782;28;20040;-61
2022/09/05 00:59:16;;;;;;;8.40;4.68;;;18.10;99.90;;;;;;5113035;28;20565;-61
2022/09/05 01:01:52;;;;;;;7.90;5.18;;;18.10;99.90;;;;;;5111928;28;20083;-61
2022/09/05 01:04:45;;;;;;;6.88;4.55;;;18.10;99.90;;;;;;5112245;28;20467;-61
2022/09/05 01:07:54;;;;;;;7.18;4.40;;;18.00;99.90;;;;;;5110039;28;20071;-61
2022/09/05 01:10:22;;;;;;;5.75;4.00;;;18.00;99.90;;;;;;5110872;28;20126;-61
2022/09/05 01:13:05;;;;;;;8.32;4.90;;;17.90;99.90;;;;;;5111866;28;20074;-61
2022/09/05 01:16:05;;;;;;;7.70;5.13;;;18.00;99.90;;;;;;5112042;28;20036;-61
2022/09/05 01:18:58;;;;;;;6.95;4.63;;;17.90;99.90;;;;;;5112490;28;20461;-61
2022/09/05 01:21:35;;;;;;;8.18;4.45;;;17.90;99.90;;;;;;5110989;28;20491;-61
2022/09/05 01:24:00;;;;;;;7.57;4.65;;;17.90;99.90;;;;;;5111319;28;20036;-61
2022/09/05 01:26:51;;;;;;;6.80;5.00;;;17.90;99.90;;;;;;5111923;28;20038;-61
2022/09/05 01:29:41;;;;;;;9.38;4.95;;;17.80;99.90;;;;;;5110116;28;20380;-61
2022/09/05 01:32:23;;;;;;;8.88;4.93;;;17.80;99.90;;;;;;5112032;28;20040;-61
2022/09/05 01:35:26;;;;;;;7.88;4.63;;;17.80;99.90;;;;;;5110356;28;20471;-61
2022/09/05 01:37:52;;;;;;;9.18;5.22;;;17.70;99.90;;;;;;5111179;28;20071;-61
2022/09/05 01:40:24;;;;;;;6.18;4.75;;;17.70;99.90;;;;;;5110587;28;20043;-61
2022/09/05 01:43:18;;;;;;;7.20;4.60;;;17.70;99.90;;;;;;5093363;28;20124;-61
2022/09/05 01:46:02;;;;;;;9.45;5.68;;;17.60;99.90;;;;;;5111116;28;20088;-60
2022/09/05 01:48:50;;;;;;;6.40;5.13;;;17.60;99.90;;;;;;5112323;28;20075;-61
2022/09/05 01:51:34;;;;;;;8.10;5.82;;;17.50;99.90;;;;;;5111871;28;20039;-61
2022/09/05 01:54:23;;;;;;;10.13;5.17;;;17.50;99.90;;;;;;5111166;28;20058;-61
2022/09/05 01:57:06;;;;;;;6.53;4.68;;;17.50;99.90;;;;;;5110131;28;20169;-61
2022/09/05 01:59:58;;;;;;;7.13;5.10;;;17.40;99.90;;;;;;5111407;28;20039;-61
2022/09/05 02:02:41;;;;;;;8.10;5.78;;;17.40;99.90;;;;;;5092957;28;20173;-61
2022/09/05 02:05:29;;;;;;;8.65;5.03;;;17.30;99.90;;;;;;5113182;28;20036;-61
2022/09/05 02:08:15;;;;;;;8.65;5.88;;;17.30;99.90;;;;;;5114942;28;20491;-61
2022/09/05 02:11:02;;;;;;;7.03;5.70;;;17.30;99.90;;;;;;5115025;28;20075;-61
2022/09/05 02:13:34;;;;;;;8.85;6.15;;;17.20;99.90;;;;;;5097665;28;20122;-61
2022/09/05 02:16:12;;;;;;;15.25;6.35;;;17.20;99.90;;;;;;5114470;28;20047;-61
2022/09/05 02:18:48;;;;;;;9.23;5.63;;;17.10;99.90;;;;;;5113395;28;20054;-61
2022/09/05 02:21:26;;;;;;;7.97;6.20;;;17.10;99.90;;;;;;5113641;28;20097;-61
2022/09/05 02:24:03;;;;;;;8.90;6.07;;;17.10;99.90;;;;;;5114436;28;20039;-60
2022/09/05 02:26:34;;;;;;;11.90;6.18;;;17.10;99.90;;;;;;5115874;28;20040;-61
2022/09/05 02:29:12;;;;;;;8.00;5.82;;;17.00;99.90;;;;;;5114632;28;20535;-61
2022/09/05 02:32:08;;;;;;;8.93;6.53;;;17.00;99.90;;;;;;5113358;28;20092;-61
2022/09/05 02:34:56;;;;;;;6.68;5.50;;;16.90;99.90;;;;;;5114538;28;20101;-61
2022/09/05 02:37:34;;;;;;;10.77;6.38;;;16.90;99.90;;;;;;5114678;27;20480;-61
2022/09/05 02:40:03;;;;;;;8.07;6.35;;;16.80;99.90;;;;;;5113374;28;20052;-61
2022/09/05 02:42:52;;;;;;;8.13;6.00;;;16.80;99.90;;;;;;5115439;28;20039;-61
2022/09/05 02:45:37;;;;;;;8.95;6.00;;;16.80;99.90;;;;;;5112880;28;20543;-61
2022/09/05 02:48:28;;;;;;;8.57;6.28;;;16.80;99.90;;;;;;5114598;28;20092;-61
2022/09/05 02:51:12;;;;;;;8.48;6.78;;;16.70;99.90;;;;;;5113740;28;20067;-61
2022/09/05 02:53:41;;;;;;;8.65;6.15;;;16.70;99.90;;;;;;5113047;28;20074;-61
2022/09/05 02:56:28;;;;;;;8.50;6.45;;;16.70;99.90;;;;;;5114509;28;20051;-61
2022/09/05 02:58:54;;;;;;;9.50;6.47;;;16.70;99.90;;;;;;5114956;28;20036;-61
2022/09/05 03:01:43;;;;;;;8.57;6.82;;;16.60;99.90;;;;;;5112265;28;20092;-61
2022/09/05 03:04:24;;;;;;;10.80;6.72;;;16.60;99.90;;;;;;5113042;28;20079;-61
2022/09/05 03:07:07;;;;;;;8.38;6.60;;;16.50;99.90;;;;;;5095998;28;20435;-61
2022/09/05 03:10:14;;;;;;;8.55;7.43;;;16.50;99.90;;;;;;5114954;28;20353;-61
2022/09/05 03:13:15;;;;;;;10.45;6.90;;;16.50;99.90;;;;;;5113534;28;20055;-61
2022/09/05 03:16:02;;;;;;;9.95;7.28;;;16.40;99.90;;;;;;5082063;28;20100;-61
2022/09/05 03:18:58;;;;;;;12.50;6.95;;;16.40;99.90;;;;;;5114534;28;20472;-61
2022/09/05 03:21:53;;;;;;;11.18;6.75;;;16.30;99.90;;;;;;5113102;28;20039;-61
2022/09/05 03:24:30;;;;;;;8.38;6.60;;;16.40;99.90;;;;;;5114138;28;20040;-61
2022/09/05 03:27:11;;;;;;;8.90;6.95;;;16.30;99.90;;;;;;5114526;28;20044;-61
2022/09/05 03:29:55;;;;;;;12.05;7.18;;;16.30;99.90;;;;;;5112267;28;20114;-61
2022/09/05 03:32:40;;;;;;;9.70;6.68;;;16.30;99.90;;;;;;5112524;28;20050;-61
2022/09/05 03:35:36;;;;;;;8.47;5.97;;;16.20;99.90;;;;;;5111630;28;20047;-61
2022/09/05 03:38:33;;;;;;;7.95;6.72;;;16.20;99.90;;;;;;5113953;28;20044;-61
2022/09/05 03:41:11;;;;;;;8.30;6.40;;;16.20;99.90;;;;;;5114207;28;20120;-61
2022/09/05 03:43:39;;;;;;;8.18;6.18;;;16.20;99.90;;;;;;5112305;28;20035;-61
2022/09/05 03:46:26;;;;;;;10.00;7.47;;;16.20;99.90;;;;;;5113381;28;20059;-61
2022/09/05 03:49:20;;;;;;;14.10;8.73;;;16.20;99.90;;;;;;5111937;28;20507;-61
2022/09/05 03:51:55;;;;;;;8.02;6.45;;;16.10;99.90;;;;;;5112702;28;20044;-60
2022/09/05 03:54:33;;;;;;;8.07;7.13;;;16.10;99.90;;;;;;5112268;28;20055;-61
2022/09/05 03:57:01;;;;;;;7.97;6.20;;;16.10;99.90;;;;;;5112016;28;20056;-61
2022/09/05 03:59:46;;;;;;;8.40;7.18;;;16.10;99.90;;;;;;5112055;28;20039;-61
2022/09/05 04:02:16;;;;;;;10.40;7.85;;;16.10;99.90;;;;;;5112066;28;20430;-61
2022/09/05 04:04:43;;;;;;;8.60;7.68;;;16.00;99.90;;;;;;5113029;28;20039;-61
2022/09/05 04:07:27;;;;;;;8.40;7.00;;;16.00;99.90;;;;;;5111899;28;20115;-61
2022/09/05 04:10:03;;;;;;;9.98;7.45;;;16.00;99.90;;;;;;5111728;28;20039;-61
2022/09/05 04:12:47;;;;;;;8.38;7.25;;;16.00;99.90;;;;;;5112343;28;20051;-60
2022/09/05 04:15:20;;;;;;;7.90;6.05;;;16.00;99.90;;;;;;5112811;28;20146;-60
2022/09/05 04:17:52;;;;;;;9.98;7.60;;;16.00;99.90;;;;;;5094183;28;20066;-61
2022/09/05 04:20:37;;;;;;;11.82;8.00;;;16.00;99.90;;;;;;5113089;28;20046;-61
2022/09/05 04:23:18;;;;;;;8.55;7.03;;;15.90;99.90;;;;;;5094737;28;20040;-61
2022/09/05 04:26:31;;;;;;;9.80;7.97;;;15.90;99.90;;;;;;5111227;28;20040;-61
2022/09/05 04:29:15;;;;;;;10.98;8.00;;;15.90;99.90;;;;;;5014068;28;20120;-61
2022/09/05 04:32:02;;;;;;;8.05;6.20;;;15.90;99.90;;;;;;5029741;28;20046;-61
2022/09/05 04:35:06;;;;;;;11.63;8.45;;;15.90;99.90;;;;;;5091196;28;20088;-61
2022/09/05 04:37:58;;;;;;;8.43;7.50;;;15.90;99.90;;;;;;5074290;28;20094;-61
2022/09/05 04:40:38;;;;;;;10.00;7.45;;;15.80;99.90;;;;;;5111615;28;20097;-60
2022/09/05 04:43:12;;;;;;;10.52;7.18;;;15.80;99.90;;;;;;5094218;28;20047;-61
2022/09/05 04:46:09;;;;;;;9.63;8.18;;;15.80;99.90;;;;;;5093922;28;20031;-61
2022/09/05 04:48:57;;;;;;;10.38;7.75;;;15.90;99.90;;;;;;5112201;28;20055;-61
2022/09/05 04:51:47;;;;;;;10.88;8.55;;;15.80;99.90;;;;;;5111610;28;20047;-61
2022/09/05 04:54:25;;;;;;;8.40;7.20;;;15.80;99.90;;;;;;5112403;28;20103;-61
2022/09/05 04:56:59;;;;;;;15.70;9.70;;;15.80;99.90;;;;;;5111577;28;20047;-61
2022/09/05 04:59:31;;;;;;;;;;;15.80;99.90;;;;;;5110851;28;20051;-60
2022/09/05 05:02:25;;;;;;;9.13;7.88;;;15.70;99.90;;;;;;5112987;28;19926;-61
2022/09/05 05:05:00;;;;;;;11.90;8.82;;;15.70;99.90;;;;;;5112777;28;20400;-61
2022/09/05 05:07:53;;;;;;;10.05;8.23;;;15.70;99.90;;;;;;5110070;28;20040;-61
2022/09/05 05:10:36;;;;;;;11.40;8.02;;;15.70;99.90;;;;;;5112330;28;20043;-61
2022/09/05 05:13:56;;;;;;;11.75;8.88;;;15.70;99.90;;;;;;5111561;28;20044;-61
2022/09/05 05:16:30;;;;;;;9.00;8.10;;;15.70;99.90;;;;;;5055711;28;20051;-60
2022/09/05 05:19:20;;;;;;;10.68;8.88;;;15.70;99.90;;;;;;5111306;28;20126;-60
2022/09/05 05:21:51;;;;;;;12.27;8.63;;;15.70;99.90;;;;;;5111843;28;20052;-61
2022/09/05 05:24:26;;;;;;;10.80;8.82;;;15.70;99.90;;;;;;5093821;28;20043;-61
2022/09/05 05:27:04;;;;;;;14.35;8.68;;;15.70;99.90;;;;;;5111714;28;20396;-61
2022/09/05 05:29:52;;;;;;;9.77;8.77;;;15.70;99.90;;;;;;5094388;28;20043;-61
2022/09/05 05:32:57;;;;;;;9.55;6.78;;;15.70;99.90;;;;;;5112065;28;20040;-61
2022/09/05 05:35:30;;;;;;;10.85;8.05;;;15.70;99.90;;;;;;5105057;28;20560;-61
2022/09/05 05:38:16;;;;;;;10.20;8.52;;;15.80;99.90;;;;;;5113473;28;20039;-61
2022/09/05 05:41:10;;;;;;;13.25;8.35;;;15.80;99.90;;;;;;5119788;27;20040;-61
2022/09/05 05:43:40;;;;;;;8.77;7.18;;;15.80;99.90;;;;;;5088890;28;20052;-61
2022/09/05 05:46:07;;;;;;;10.35;6.53;;;15.80;99.90;;;;;;5115606;28;20044;-61
2022/09/05 05:48:38;;;;;;;9.65;7.95;;;15.80;99.90;;;;;;5094050;27;20118;-62
2022/09/05 05:51:32;;;;;;;12.25;9.32;;;15.90;99.90;;;;;;5098483;28;20039;-62
2022/09/05 05:54:27;;;;;;;12.40;8.57;;;16.00;99.90;;;;;;5093380;27;20039;-63
2022/09/05 05:57:23;;;;;;;10.50;8.32;;;16.10;99.90;;;;;;5091514;28;20047;-62
2022/09/05 06:00:00;;;;;;;10.27;8.65;;;16.10;99.90;;;;;;5087790;28;20052;-62
2022/09/05 06:02:48;;;;;;;9.65;8.15;;;16.20;99.90;;;;;;5088991;28;20093;-62
2022/09/05 06:05:41;;;;;;;11.98;8.90;;;16.30;99.90;;;;;;5113364;28;20070;-62
2022/09/05 06:08:46;;;;;;;9.60;7.63;;;16.30;99.90;;;;;;5113080;28;20438;-62
2022/09/05 06:11:18;;;;;;;10.15;7.90;;;16.40;99.90;;;;;;5121267;27;20035;-61
2022/09/05 06:13:58;;;;;;;13.10;7.88;;;16.50;99.90;;;;;;5113505;28;20047;-62
2022/09/05 06:17:03;;;;;;;11.02;8.63;;;16.50;99.90;;;;;;5093674;28;20555;-62
2022/09/05 06:19:46;;;;;;;9.38;8.10;;;16.60;99.90;;;;;;5097133;27;20132;-61
2022/09/05 06:22:34;;;;;;;11.05;8.55;;;16.70;99.90;;;;;;5130159;27;20134;-61
2022/09/05 06:25:35;;;;;;;10.73;8.80;;;16.80;99.90;;;;;;5119686;27;20388;-62
2022/09/05 06:28:21;;;;;;;8.18;7.35;;;16.90;99.90;;;;;;5088744;28;20046;-62
2022/09/05 06:31:24;;;;;;;9.82;8.77;;;17.00;99.90;;;;;;5093701;28;20039;-62
2022/09/05 06:34:20;;;;;;;9.43;8.10;;;17.10;99.90;;;;;;5111755;28;20044;-61
2022/09/05 06:36:54;;;;;;;8.80;7.90;;;17.20;99.90;;;;;;5122928;27;20183;-61
2022/09/05 06:39:37;;;;;;;11.13;8.15;;;17.30;99.90;;;;;;5131742;27;20064;-61
2022/09/05 06:42:25;;;;;;;10.68;9.15;;;17.40;99.90;;;;;;5078828;28;20050;-62
2022/09/05 06:45:02;;;;;;;15.68;8.93;;;17.50;99.90;;;;;;5093352;28;20044;-61
2022/09/05 06:47:30;;;;;;;10.80;8.23;;;17.50;99.90;;;;;;5117819;27;20530;-61
2022/09/05 06:50:19;;;;;;;10.85;9.25;;;17.60;99.90;;;;;;5113329;27;20096;-61
2022/09/05 06:53:02;;;;;;;11.32;8.52;;;17.60;99.90;;;;;;5090079;28;20376;-61
2022/09/05 06:55:34;;;;;;;12.23;7.93;;;17.70;99.90;;;;;;5097233;27;20392;-61
2022/09/05 06:58:31;;;;;;;11.48;9.15;;;17.80;99.90;;;;;;5092809;27;20059;-61
2022/09/05 07:00:59;;;;;;;10.10;8.48;;;17.90;99.90;;;;;;5105431;27;20039;-61
2022/09/05 07:04:25;;;;;;;11.68;8.40;;;18.00;99.90;;;;;;5112541;27;20043;-61
2022/09/05 07:07:12;;;;;;;10.65;8.45;;;18.10;99.90;;;;;;4996054;28;20037;-61
2022/09/05 07:09:58;;;;;;;12.55;8.20;;;18.30;99.90;;;;;;4993609;28;20046;-62
2022/09/05 07:12:43;;;;;;;8.88;7.70;;;18.40;99.90;;;;;;5081257;27;20146;-61
2022/09/05 07:15:27;;;;;;;;;;;18.50;99.90;;;;;;5132380;27;20053;-61
2022/09/05 07:18:15;;;;;;;9.20;7.85;;;18.60;99.90;;;;;;5112773;27;19965;-61
2022/09/05 07:21:00;;;;;;;11.73;8.02;;;18.70;99.90;;;;;;5089781;28;20446;-62
2022/09/05 07:23:46;;;;;;;10.38;8.75;;;18.90;99.90;;;;;;5089644;28;20036;-61
2022/09/05 07:26:15;;;;;;;11.07;9.07;;;19.00;99.90;;;;;;5092659;28;20491;-61
2022/09/05 07:28:44;;;;;;;10.45;9.05;;;19.10;99.90;;;;;;5099853;27;20047;-62
2022/09/05 07:31:16;;;;;;;9.45;8.07;;;19.20;99.90;;;;;;5076445;28;20062;-62
2022/09/05 07:33:44;;;;;;;10.48;8.23;;;19.30;99.90;;;;;;5092655;28;20126;-62
2022/09/05 07:36:29;;;;;;;9.90;7.88;;;19.30;99.90;;;;;;5092064;28;20062;-61
2022/09/05 07:38:59;;;;;;;9.70;8.00;;;19.40;99.90;;;;;;5095687;28;20519;-62
2022/09/05 07:41:29;;;;;;;9.77;8.40;;;19.50;99.90;;;;;;5080343;28;20050;-62
2022/09/05 07:44:01;;;;;;;12.02;8.35;;;19.60;99.90;;;;;;5113450;27;20039;-62
2022/09/05 07:46:37;;;;;;;11.48;7.85;;;19.80;99.90;;;;;;5081361;28;20058;-62
2022/09/05 07:49:03;;;;;;;10.63;7.15;;;19.90;99.90;;;;;;5099723;27;20039;-62
2022/09/05 07:51:33;;;;;;;10.45;8.45;;;20.00;99.90;;;;;;5113915;27;20054;-62
2022/09/05 07:54:09;;;;;;;8.40;7.22;;;20.10;99.90;;;;;;5080310;28;20045;-62
2022/09/05 07:56:58;;;;;;;11.10;7.57;;;20.20;99.90;;;;;;5094843;28;20050;-62
2022/09/05 07:59:26;;;;;;;9.40;7.13;;;20.40;99.90;;;;;;5084536;27;20078;-61
2022/09/05 08:01:53;;;;;;;11.75;8.15;;;20.50;99.90;;;;;;5109299;27;20039;-61
2022/09/05 08:04:27;;;;;;;10.18;7.43;;;20.50;99.90;;;;;;5096877;27;20039;-62
2022/09/05 08:06:56;;;;;;;10.25;7.25;;;20.60;99.90;;;;;;5110531;27;20031;-62
2022/09/05 08:09:36;;;;;;;9.05;7.22;;;20.70;99.90;;;;;;5093808;28;20104;-62
2022/09/05 08:12:10;;;;;;;9.55;7.85;;;20.80;99.90;;;;;;5078295;28;20118;-62
2022/09/05 08:14:41;;;;;;;8.68;7.07;;;20.80;99.90;;;;;;5078359;28;20039;-61
2022/09/05 08:17:13;;;;;;;8.93;7.65;;;20.90;99.90;;;;;;5077098;28;20039;-62
2022/09/05 08:19:43;;;;;;;8.43;7.35;;;20.90;99.90;;;;;;5114752;27;20385;-62
2022/09/05 08:22:19;;;;;;;9.80;7.57;;;21.00;99.90;;;;;;5092840;28;20469;-62
2022/09/05 08:25:14;;;;;;;9.60;7.43;;;21.10;99.90;;;;;;5074363;28;20032;-62
2022/09/05 08:27:55;;;;;;;;;;;21.20;99.90;;;;;;5073646;28;20135;-61
2022/09/05 08:30:22;;;;;;;11.07;7.30;;;21.20;99.90;;;;;;5097133;28;19951;-62
2022/09/05 08:32:59;;;;;;;10.15;7.60;;;21.30;99.90;;;;;;5095018;28;20039;-62
2022/09/05 08:35:47;;;;;;;8.27;7.28;;;21.40;99.90;;;;;;5112732;28;20035;-62
2022/09/05 08:38:14;;;;;;;10.80;6.90;;;21.50;99.90;;;;;;5093358;28;20054;-61
2022/09/05 08:41:04;;;;;;;8.23;6.63;;;21.60;99.90;;;;;;5103157;27;20035;-62
2022/09/05 08:43:39;;;;;;;10.75;6.35;;;21.80;99.90;;;;;;5089570;28;20493;-62
2022/09/05 08:46:13;;;;;;;10.02;6.78;;;21.90;99.90;;;;;;5091385;28;20039;-61
2022/09/05 08:48:50;;;;;;;10.40;7.38;;;22.10;99.90;;;;;;5092072;28;20035;-61
2022/09/05 08:51:45;;;;;;;11.90;7.80;;;22.10;99.90;;;;;;5076547;28;20075;-61
2022/09/05 08:54:21;;;;;;;8.60;7.38;;;22.30;99.90;;;;;;5112285;28;20040;-62
2022/09/05 08:56:58;;;;;;;8.15;6.63;;;22.40;99.90;;;;;;5092824;28;20031;-61
2022/09/05 08:59:35;;;;;;;11.55;6.68;;;22.50;99.90;;;;;;5073194;28;20178;-62
2022/09/05 09:02:22;;;;;;;10.18;6.85;;;22.60;99.90;;;;;;5092624;28;20040;-61
2022/09/05 09:05:13;;;;;;;9.63;7.00;;;22.70;99.90;;;;;;5108368;28;20036;-62
2022/09/05 09:08:06;;;;;;;8.40;6.75;;;22.80;99.90;;;;;;5074658;28;20450;-62
2022/09/05 09:10:56;;;;;;;9.40;6.72;;;22.90;99.90;;;;;;5074412;28;20119;-62
2022/09/05 09:13:51;;;;;;;8.85;7.28;;;22.90;99.70;;;;;;5092899;28;20571;-62
2022/09/05 09:16:16;;;;;;;;;;;23.00;99.50;;;;;;5106727;27;20505;-61
2022/09/05 09:19:08;;;;;;;9.15;6.78;;;23.10;98.80;;;;;;5122270;27;19919;-62
2022/09/05 09:21:55;;;;;;;8.30;6.15;;;23.20;98.80;;;;;;5119174;27;20429;-62
2022/09/05 09:24:21;;;;;;;9.93;5.72;;;23.40;99.10;;;;;;5116597;27;20043;-62
2022/09/05 09:27:12;;;;;;;7.53;6.35;;;23.50;98.50;;;;;;5136477;27;20033;-61
2022/09/05 09:29:41;;;;;;;8.38;7.10;;;23.70;98.20;;;;;;5119185;27;20045;-61
2022/09/05 09:32:14;;;;;;;10.07;6.88;;;23.80;98.20;;;;;;5136643;27;20387;-62
2022/09/05 09:35:18;;;;;;;11.00;6.85;;;23.90;97.40;;;;;;5116398;27;20061;-62
2022/09/05 09:38:46;;;;;;;9.23;6.20;;;24.00;96.80;;;;;;5129501;27;20156;-61
2022/09/05 09:41:27;;;;;;;9.63;6.38;;;24.10;97.40;;;;;;5013718;28;20487;-62
2022/09/05 09:44:14;;;;;;;10.07;6.22;;;24.20;96.50;;;;;;5079706;28;20112;-61
2022/09/05 09:46:49;;;;;;;9.60;7.07;;;24.30;96.10;;;;;;5077810;28;20078;-62
2022/09/05 09:49:29;;;;;;;7.70;6.45;;;24.50;95.60;;;;;;5094445;28;20580;-62
2022/09/05 09:52:36;;;;;;;7.65;6.28;;;24.50;95.30;;;;;;5085075;27;20053;-62
2022/09/05 09:55:23;;;;;;;8.15;6.43;;;24.60;95.10;;;;;;5038845;28;20059;-62
2022/09/05 09:58:11;;;;;;;9.88;5.20;;;24.60;95.00;;;;;;5099608;27;20127;-62
2022/09/05 10:00:50;;;;;;;7.22;5.68;;;24.70;94.50;;;;;;5114776;27;20043;-62
2022/09/05 10:03:36;;;;;;;8.55;5.40;;;24.80;94.20;;;;;;5114330;28;20035;-62
2022/09/05 10:06:11;;;;;;;8.93;5.60;;;24.90;94.40;;;;;;5115930;28;20095;-62
2022/09/05 10:09:02;;;;;;;6.57;4.88;;;25.00;93.90;;;;;;5115102;27;20036;-61
2022/09/05 10:11:49;;;;;;;6.93;4.97;;;25.10;93.50;;;;;;5115904;28;20046;-62
2022/09/05 10:14:42;;;;;;;6.93;4.68;;;25.20;93.10;;;;;;5115206;28;20043;-62
2022/09/05 10:17:26;;;;;;;7.22;4.50;;;25.30;92.40;;;;;;5096202;28;20043;-62
2022/09/05 10:20:23;;;;;;;6.30;3.70;;;25.40;92.40;;;;;;5115867;28;20055;-62
2022/09/05 10:23:13;;;;;;;6.32;3.78;;;25.50;90.90;;;;;;5096627;28;20046;-61
2022/09/05 10:26:07;;;;;;;6.78;4.22;;;25.60;91.00;;;;;;5133947;27;20383;-62
2022/09/05 10:28:43;;;;;;;5.70;4.10;;;25.70;90.80;;;;;;5131930;27;20039;-62
2022/09/05 10:31:17;;;;;;;7.47;4.10;;;25.80;90.40;;;;;;5113902;27;20047;-64
2022/09/05 10:33:57;;;;;;;6.15;3.83;;;25.90;90.10;;;;;;5095273;28;20032;-63
2022/09/05 10:36:26;;;;;;;5.30;3.90;;;25.90;89.70;;;;;;5127816;27;20084;-64
2022/09/05 10:39:11;;;;;;;9.15;3.80;;;25.90;88.80;;;;;;5118032;27;20102;-66
2022/09/05 10:41:51;;;;;;;6.50;3.83;;;25.90;89.00;;;;;;5115197;27;20058;-64
2022/09/05 10:44:29;;;;;;;6.90;4.30;;;26.10;88.90;;;;;;5109012;27;20419;-65
2022/09/05 10:47:42;;;;;;;5.97;3.78;;;26.20;86.90;;;;;;5118832;27;20035;-66
2022/09/05 10:50:26;;;;;;;5.82;3.47;;;26.20;86.20;;;;;;5050239;27;20043;-63
2022/09/05 10:53:12;;;;;;;5.38;3.47;;;26.30;86.10;;;;;;5108267;28;20039;-68
2022/09/05 10:55:50;;;;;;;5.55;3.30;;;26.30;84.90;;;;;;5097159;28;20488;-66
2022/09/05 10:58:23;;;;;;;10.32;3.88;;;26.40;83.90;;;;;;5096551;28;20120;-67
2022/09/05 11:01:13;;;;;;;6.30;3.50;;;26.40;82.50;;;;;;5115058;28;20043;-67
2022/09/05 11:03:52;;;;;;;6.50;3.65;;;26.40;83.40;;;;;;5096639;28;20046;-67
2022/09/05 11:06:31;;;;;;;5.72;3.22;;;26.50;82.60;;;;;;5097875;27;20484;-67
2022/09/05 11:09:08;;;;;;;5.35;3.42;;;26.50;82.00;;;;;;5134097;27;20039;-66
2022/09/05 11:11:49;;;;;;;6.25;3.80;;;26.60;80.90;;;;;;5093429;28;20044;-67
2022/09/05 11:14:28;;;;;;;6.53;3.25;;;26.60;79.60;;;;;;5090552;27;20037;-67
2022/09/05 11:17:05;;;;;;;7.05;3.35;;;26.70;79.80;;;;;;5086705;28;20050;-67
2022/09/05 11:19:43;;;;;;;4.82;2.95;;;26.70;80.00;;;;;;5106239;28;20123;-67
2022/09/05 11:22:12;;;;;;;13.90;4.28;;;26.70;78.70;;;;;;5067478;28;20036;-67
2022/09/05 11:24:46;;;;;;;7.43;3.45;;;26.70;78.30;;;;;;5094379;28;20476;-67
2022/09/05 11:27:27;;;;;;;6.90;3.22;;;26.80;77.10;;;;;;5108670;27;20043;-67
2022/09/05 11:30:01;;;;;;;5.78;3.28;;;26.80;77.80;;;;;;5114236;27;20089;-67
2022/09/05 11:33:03;;;;;;;9.30;3.33;;;26.90;77.20;;;;;;5116561;27;20100;-67
2022/09/05 11:35:33;;;;;;;6.00;3.38;;;27.10;77.00;;;;;;5087753;27;20056;-67
2022/09/05 11:38:37;;;;;;;5.45;3.53;;;27.20;74.50;;;;;;5100253;27;20089;-67
2022/09/05 11:41:25;;;;;;;5.63;3.28;;;27.10;73.90;;;;;;5113450;27;20039;-67
2022/09/05 11:44:17;;;;;;;8.20;3.65;;;27.10;74.60;;;;;;5129150;27;20043;-67
2022/09/05 11:47:04;;;;;;;5.93;3.35;;;27.20;75.50;;;;;;5107334;27;20031;-67
2022/09/05 11:50:05;;;;;;;5.80;3.53;;;27.30;74.90;;;;;;5094921;28;20071;-67
2022/09/05 11:52:57;;;;;;;5.45;3.53;;;27.30;74.50;;;;;;5028889;28;20485;-67
2022/09/05 11:55:55;;;;;;;5.28;3.47;;;27.40;74.70;;;;;;5110750;27;20050;-67
2022/09/05 11:59:05;;;;;;;6.88;3.70;;;27.50;74.30;;;;;;5111001;27;20039;-67
2022/09/05 12:01:43;;;;;;;4.72;3.15;;;27.50;74.90;;;;;;5073911;27;20044;-67
2022/09/05 12:04:28;;;;;;;5.72;3.53;;;27.40;75.00;;;;;;5117520;27;20043;-68
2022/09/05 12:07:04;;;;;;;6.18;3.55;;;27.20;74.80;;;;;;5113980;28;20071;-67
2022/09/05 12:09:48;;;;;;;7.72;3.63;;;27.00;74.90;;;;;;5079002;28;20092;-67
2022/09/05 12:12:25;;;;;;;;;;;26.90;74.80;;;;;;5116841;27;20040;-66
2022/09/05 12:14:56;;;;;;;5.10;3.20;;;26.70;75.50;;;;;;5110570;27;20002;-67
2022/09/05 12:17:27;;;;;;;5.82;3.33;;;26.60;76.00;;;;;;5097821;28;20067;-68
2022/09/05 12:20:11;;;;;;;5.85;3.30;;;26.50;76.30;;;;;;5094111;27;20044;-67
2022/09/05 12:22:52;;;;;;;7.53;2.90;;;26.70;76.40;;;;;;5081306;28;20036;-66
2022/09/05 12:25:47;;;;;;;9.13;3.20;;;26.80;75.80;;;;;;5110364;28;20445;-66
2022/09/05 12:28:39;;;;;;;6.20;3.05;;;27.00;75.90;;;;;;5112731;27;20038;-66
2022/09/05 12:31:31;;;;;;;6.85;3.28;;;27.00;74.40;;;;;;5101129;27;20535;-66
2022/09/05 12:34:00;;;;;;;5.80;3.22;;;26.80;74.60;;;;;;5102151;28;20161;-66
2022/09/05 12:36:40;;;;;;;5.65;3.30;;;26.80;74.80;;;;;;5084873;28;20496;-66
2022/09/05 12:39:17;;;;;;;5.35;3.20;;;26.90;74.70;;;;;;5109062;27;20156;-65
2022/09/05 12:42:09;;;;;;;5.47;2.67;;;26.90;74.90;;;;;;5085335;28;20050;-65
2022/09/05 12:44:46;;;;;;;4.93;2.60;;;27.00;74.80;;;;;;5078482;28;20043;-66
2022/09/05 12:47:16;;;;;;;4.95;2.40;;;27.10;71.90;;;;;;5128970;27;20039;-66
2022/09/05 12:50:05;;;;;;;6.43;3.05;;;27.30;70.90;;;;;;5120420;27;20387;-66
2022/09/05 12:52:32;;;;;;;4.45;2.58;;;27.50;69.10;;;;;;5115636;27;21412;-66
2022/09/05 12:55:09;;;;;;;5.80;2.60;;;27.60;67.70;;;;;;5099561;28;20118;-66
2022/09/05 12:57:40;;;;;;;5.18;2.50;;;27.80;67.30;;;;;;5110710;28;20035;-66
2022/09/05 13:00:17;;;;;;;3.95;2.33;;;27.90;66.40;;;;;;5124292;27;20485;-66
2022/09/05 13:02:50;;;;;;;5.30;2.22;;;28.00;66.00;;;;;;5132539;27;20131;-66
2022/09/05 13:05:21;;;;;;;4.97;2.90;;;28.10;65.90;;;;;;5113466;28;20039;-66
2022/09/05 13:07:57;;;;;;;7.18;2.75;;;28.10;65.20;;;;;;5110263;28;20070;-67
2022/09/05 13:10:36;;;;;;;6.05;2.90;;;28.00;65.50;;;;;;5129150;28;20043;-67
2022/09/05 13:13:19;;;;;;;4.55;2.67;;;28.00;65.30;;;;;;5093560;28;20077;-67
2022/09/05 13:15:51;;;;;;;4.93;2.38;;;28.00;65.20;;;;;;5101008;28;20047;-67
2022/09/05 13:18:29;;;;;;;6.18;2.92;;;28.10;64.90;;;;;;5123962;28;20057;-67
2022/09/05 13:21:03;;;;;;;6.63;2.60;;;28.20;65.00;;;;;;5100739;28;20502;-68
2022/09/05 13:23:37;;;;;;;5.43;3.03;;;28.20;64.70;;;;;;5132675;28;20122;-67
2022/09/05 13:26:25;;;;;;;5.97;2.78;;;28.30;64.80;;;;;;5131813;28;20039;-67
2022/09/05 13:28:57;;;;;;;6.00;2.97;;;28.30;64.20;;;;;;5113181;28;20039;-67
2022/09/05 13:31:40;;;;;;;5.03;2.92;;;28.40;64.80;;;;;;5112296;28;20043;-67
2022/09/05 13:34:14;;;;;;;6.65;3.25;;;28.30;66.30;;;;;;5095603;28;20040;-67
2022/09/05 13:37:05;;;;;;;5.72;2.70;;;28.20;67.40;;;;;;5098355;28;20519;-67
2022/09/05 13:39:42;;;;;;;5.15;3.10;;;28.00;68.20;;;;;;5130607;28;20105;-67
2022/09/05 13:42:16;;;;;;;7.65;3.50;;;28.00;68.50;;;;;;5097345;28;20047;-67
2022/09/05 13:44:45;;;;;;;9.63;3.10;;;27.90;68.50;;;;;;5112424;28;20043;-67
2022/09/05 13:47:49;;;;;;;4.88;3.10;;;27.70;68.60;;;;;;5115155;28;20028;-67
2022/09/05 13:50:22;;;;;;;4.90;3.13;;;27.60;69.10;;;;;;5074185;28;20066;-68
2022/09/05 13:53:11;;;;;;;5.78;3.63;;;27.40;69.80;;;;;;5062473;28;20118;-67
2022/09/05 13:55:39;;;;;;;7.22;3.33;;;27.40;69.80;;;;;;5091211;28;20047;-66
2022/09/05 13:58:11;;;;;;;4.68;2.65;;;27.60;69.50;;;;;;5073466;28;20496;-65
2022/09/05 14:00:40;;;;;;;5.70;2.55;;;27.60;68.50;;;;;;5098341;27;20050;-64
2022/09/05 14:03:08;;;;;;;4.30;2.38;;;27.60;67.60;;;;;;5113167;27;20039;-64
2022/09/05 14:05:58;;;;;;;4.57;2.50;;;27.70;66.30;;;;;;5113880;27;20078;-64